Blue Oak Ranch Reserve, California Weather observations

Data are for 10 minute period ending at time listed.
 Day   Time   Solar   Ave.   Ave.  Ave.  Vector  Max.   Baro.   Total    
  of    of     Rad.   Air    Rel.  Wind   Wind   Wind  Press.  Precip.   
Year   Day            Temp.  Hum.  Speed  Dir.   Gust                    
2015   (PST)  Kw/m2    F      %     mph   deg.    mph    mb.     in.     
-------------------------------------------------------------------------
 116    6:10   0.03   37.1    96    0.7    75     3.4   950.8    0.00 
 116    6:20   0.05   37.6    96    0.7     5     2.3   950.8    0.00 
 116    6:30   0.14   39.5    97    0.5   299     2.0   950.9    0.00 
 116    6:40   0.18   42.2    96    1.1    76     2.8   951.0    0.00 
 116    6:50   0.21   45.1    93    0.4   106     1.2   951.0    0.00 
 116    7:00   0.25   48.4    78    0.3   326     2.4   951.1    0.00 
 116    7:10   0.28   51.0    63    1.8   280     5.9   951.2    0.00 
 116    7:20   0.32   51.6    62    3.7   285     6.1   951.3    0.00 
 116    7:30   0.32   51.4    60    4.8   288     8.6   951.4    0.00 
 116    7:40   0.35   51.2    59    6.1   290     9.3   951.4    0.00 
 116    7:50   0.41   51.5    57    6.7   285    10.2   951.4    0.00 
 116    8:00   0.45   53.0    55    5.0   276     7.9   951.2    0.00 
 116    8:10   0.48   54.7    55    3.1   234     6.1   951.0    0.00 
 116    8:20   0.51   54.6    63    4.4   259     7.9   950.9    0.00 
 116    8:30   0.54   55.0    59    4.9   271     8.7   951.0    0.00 
 116    8:40   0.54   54.0    64    7.0   246    11.6   951.2    0.00 
 116    8:50   0.58   53.6    65    5.3   242    10.4   951.4    0.00 
 116    9:00   0.62   53.8    64    6.6   236    10.4   951.5    0.00 
 116    9:10   0.65   54.2    63    5.8   227     9.6   951.4    0.00 
 116    9:20   0.68   54.9    62    4.8   242     8.5   951.5    0.00 
 116    9:30   0.70   55.4    61    5.0   250     9.1   951.6    0.00 
 116    9:40   0.72   56.4    60    4.7   254     8.4   951.8    0.00 
 116    9:50   0.75   57.2    60    5.0   245    10.4   952.0    0.00 
 116   10:00   0.77   56.9    60    6.1   235    10.8   952.0    0.00 
 116   10:10   0.70   56.8    61    5.6   265    10.1   952.2    0.00 
 116   10:20   0.80   57.2    61    5.4   253    10.1   952.3    0.00 
 116   10:30   0.82   57.8    60    5.9   242    12.6   952.2    0.00 
 116   10:40   0.83   58.4    60    5.1   249    10.9   952.1    0.00 
 116   10:50   0.86   59.9    58    5.8   241    10.0   952.1    0.00 
 116   11:00   0.85   60.1    57    7.3   255    12.1   952.1    0.00 
 116   11:10   0.83   59.4    56    7.4   232    12.7   952.0    0.00 
 116   11:20   0.89   59.7    56    8.5   256    14.5   951.9    0.00 
 116   11:30   0.90   61.3    54    8.0   267    14.7   951.8    0.00 
 116   11:40   0.90   60.8    53    9.7   256    16.1   951.8    0.00 
 116   11:50   0.90   60.5    53    9.5   255    16.3   951.7    0.00 
 116   12:00   0.90   63.0    48   10.4   287    16.8   951.7    0.00 
 116   12:10   0.90   63.5    45   10.8   284    16.3   951.7    0.00 
 116   12:20   0.90   63.0    46   12.2   284    16.8   951.7    0.00 
 116   12:30   0.87   63.4    46    8.9   280    16.7   951.6    0.00 
 116   12:40   0.89   63.8    45   10.6   285    16.8   951.7    0.00 
 116   12:50   0.86   63.8    46   10.9   284    18.7   951.8    0.00 
 116   13:00   0.87   64.0    47    9.0   278    15.2   951.7    0.00 
 116   13:10   0.86   64.4    48    8.8   279    13.7   951.7    0.00 
 116   13:20   0.86   64.4    47   10.1   279    18.3   951.7    0.00 
 116   13:30   0.85   64.6    47    8.6   277    13.9   951.7    0.00 
 116   13:40   0.83   64.8    46    9.8   284    16.0   951.6    0.00 
 116   13:50   0.82   64.7    45   10.0   289    16.7   951.6    0.00 
 116   14:00   0.82   65.0    45   10.1   280    16.3   951.5    0.00 
 116   14:10   0.72   65.2    45   10.6   278    16.9   951.5    0.00 
 116   14:20   0.63   64.1    47   12.2   284    17.8   951.5    0.00 
 116   14:30   0.72   64.1    47   11.7   286    17.7   951.4    0.00 
 116   14:40   0.78   64.5    46   10.5   277    17.5   951.3    0.00 
 116   14:50   0.72   65.4    45   10.4   287    18.3   951.2    0.00 
 116   15:00   0.69   65.5    44   11.0   285    17.0   951.1    0.00 
 116   15:10   0.66   65.7    43    9.4   282    15.5   951.2    0.00 
 116   15:20   0.63   65.5    44   10.3   274    16.4   951.1    0.00 
 116   15:30   0.60   65.2    44   10.1   276    16.6   951.0    0.00 
 116   15:40   0.57   65.5    44   11.2   285    16.4   950.9    0.00 
 116   15:50   0.54   65.7    43    8.9   291    16.1   950.8    0.00 
 116   16:00   0.52   65.4    45   11.4   289    18.6   950.7    0.00 
 116   16:10   0.49   64.4    45   11.4   291    18.9   950.8    0.00 
 116   16:20   0.46   64.4    46   11.2   286    16.9   950.7    0.00 
 116   16:30   0.43   64.2    47   10.4   286    15.3   950.7    0.00 
 116   16:40   0.39   63.8    48   10.4   290    15.9   950.7    0.00 
 116   16:50   0.36   63.4    49    8.8   276    14.2   950.6    0.00 
 116   17:00   0.33   63.1    49    8.5   276    14.2   950.4    0.00 
 116   17:10   0.24   62.8    50    9.6   290    13.2   950.3    0.00 
 116   17:20   0.22   61.3    52    8.0   290    11.7   950.2    0.00 
 116   17:30   0.23   61.8    52    7.6   282    12.1   950.2    0.00 
 116   17:40   0.20   61.5    54    8.0   289    10.8   950.3    0.00 
 116   17:50   0.16   60.9    56    6.7   287    10.5   950.3    0.00 
 116   18:00   0.12   60.1    58    7.4   288     9.8   950.2    0.00 
 116   18:10   0.13   59.7    58    6.9   290     8.9   950.2    0.00 
 116   18:20   0.07   59.4    60    5.0   280     7.8   950.2    0.00 
 116   18:30   0.06   58.4    63    4.8   286     6.9   950.2    0.00 
 116   18:40   0.03   57.2    65    5.4   301     6.9   950.2    0.00 
 116   18:50   0.02   56.2    67    4.2   323     5.8   950.2    0.00 
 116   19:00   0.01   55.5    68    4.3   317     5.4   950.3    0.00 
 116   19:10   0.01   54.9    70    3.1   321     4.5   950.3    0.00 
 116   19:20   0.00   53.2    76    1.4    35     2.7   950.4    0.00 
 116   19:30   0.00   51.9    79    1.2   313     3.4   950.5    0.00 
 116   19:40   0.00   51.3    80    0.3   352     1.8   950.6    0.00 
 116   19:50   0.00   50.7    80    1.1   304     3.2   950.8    0.00 
 116   20:00   0.00   50.0    81    0.4    67     1.5   950.9    0.00 
 116   20:10   0.00   49.6    81    0.1    85     1.7   951.0    0.00 
 116   20:20   0.00   49.5    81    0.9    20     2.0   951.0    0.00 
 116   20:30   0.00   49.2    83    0.9   309     2.1   951.1    0.00 
 116   20:40   0.00   49.0    82    0.4   356     1.7   951.1    0.00 
 116   20:50   0.00   48.8    83    0.3    27     1.2   951.1    0.00 
 116   21:00   0.00   48.5    83    0.5    44     2.6   951.1    0.00 
 116   21:10   0.00   48.5    82    0.7    34     3.0   951.1    0.00 
 116   21:20   0.00   49.3    79    0.9   337     3.1   951.0    0.00 
 116   21:30   0.00   50.4    76    1.1   322     2.9   951.0    0.00 
 116   21:40   0.00   51.9    71    1.7   332     5.5   950.9    0.00 
 116   21:50   0.00   54.4    67    0.4    48     2.6   950.8    0.00 
 116   22:00   0.00   54.1    69    0.9    60     3.0   950.8    0.00 
 116   22:10   0.00   53.9    70    1.0    26     6.4   950.7    0.00 
 116   22:20   0.00   51.9    75    0.9    39     3.1   950.7    0.00 
 116   22:30   0.00   51.5    76    0.9   339     2.6   950.6    0.00 
 116   22:40   0.00   50.7    79    0.9   349     5.1   950.5    0.00 
 116   22:50   0.00   50.6    81    0.7    11     2.6   950.4    0.00 
 116   23:00   0.00   50.0    83    0.7    24     2.8   950.3    0.00 
 116   23:10   0.00   50.7    81    0.7   313     3.9   950.3    0.00 
 116   23:20   0.00   51.0    79    1.0   305     2.5   950.2    0.00 
 116   23:30   0.00   50.9    78    0.2    51     1.4   950.1    0.00 
 116   23:40   0.00   50.7    78    0.3   106     1.7   950.1    0.00 
 116   23:50   0.00   50.3    79    0.1    12     1.7   950.0    0.00 
 117    0:00   0.00   50.5    78    0.8    47     2.6   950.0    0.00 
 117    0:10   0.00   50.0    80    0.7    44     1.7   950.1    0.00 
 117    0:20   0.00   49.3    82    0.4    35     1.8   950.0    0.00 
 117    0:30   0.00   49.0    82    0.2    49     2.0   949.9    0.00 
 117    0:40   0.00   49.1    82    0.1    24     0.9   949.7    0.00 
 117    0:50   0.00   48.9    82    0.7    50     1.9   949.6    0.00 
 117    1:00   0.00   49.0    82    0.8    38     2.0   949.5    0.00 
 117    1:10   0.00   48.7    83    0.4   303     2.6   949.4    0.00 
 117    1:20   0.00   49.1    82    0.5   319     2.8   949.2    0.00 
 117    1:30   0.00   49.3    81    1.6   294     5.0   949.2    0.00 
 117    1:40   0.00   49.4    81    2.1   273     4.2   949.2    0.00 
 117    1:50   0.00   49.8    80    0.9   317     2.6   949.2    0.00 
 117    2:00   0.00   49.3    81    0.7    49     1.8   949.2    0.00 
 117    2:10   0.00   48.8    81    0.5    62     2.9   949.2    0.00 
 117    2:20   0.00   48.0    84    0.3    67     1.0   949.2    0.00 
 117    2:30   0.00   47.3    86    0.6   155     2.3   949.2    0.00 
 117    2:40   0.00   47.2    87    1.1    52     2.4   949.4    0.00 
 117    2:50   0.00   47.8    87    0.9    42     2.0   949.3    0.00 
 117    3:00   0.00   47.1    88    0.8    40     1.6   949.3    0.00 
 117    3:10   0.00   46.5    89    0.4   320     1.2   949.3    0.00 
 117    3:20   0.00   46.2    90    0.1    61     0.8   949.3    0.00 
 117    3:30   0.00   46.5    91    0.2   332     1.0   949.2    0.00 
 117    3:40   0.00   45.9    91    0.2    78     1.8   949.2    0.00 
 117    3:50   0.00   45.7    92    1.8   359     6.9   949.2    0.00 
 117    4:00   0.00   50.9    75    3.3    14     6.6   949.2    0.00 
 117    4:10   0.00   51.0    73    3.4    29     9.1   949.1    0.00 
 117    4:20   0.00   57.2    56    3.9    27     7.7   949.1    0.00 
 117    4:30   0.00   60.4    50    4.3    29     6.9   949.0    0.00 
 117    4:40   0.00   60.6    48    4.3    17     7.9   948.9    0.00 
 117    4:50   0.00   61.2    46    4.2    18     8.0   948.9    0.00 
 117    5:00   0.00   61.5    44    4.2    10     8.2   948.8    0.00 
 117    5:10   0.00   61.6    44    4.4    11     8.8   948.8    0.00 
 117    5:20   0.01   61.6    43    4.6    15     9.6   948.8    0.00 
 117    5:30   0.01   61.0    44    4.4    27     8.8   948.7    0.00 
 117    5:40   0.01   61.2    43    5.5    30    12.8   948.6    0.00 
 117    5:50   0.02   61.3    43    4.8    42     9.2   948.6    0.00 
 117    6:00   0.03   61.0    44    5.9    46    10.2   948.6    0.00 

Return to Blue Oak Ranch Reserve graphs page.


Western Regional Climate Center,wrcc@dri.edu